Time;durP1;ratioP1;P1;durP2;ratioP2;P2;SDS_P1;SDS_P2;PMS_P1;PMS_P2;Temp;Humidity;BMP_temperature;BMP_pressure;BME280_temperature;BME280_humidity;BME280_pressure;Samples;Min_cycle;Max_cycle;Signal;HPM_P1;HPM_P2
2022/01/05 00:01:00;;;;;;;15.87;3.83;;;0.80;99.90;;;;;;4973879;28;20054;-87
2022/01/05 00:03:26;;;;;;;14.67;3.67;;;1.80;99.90;;;;;;4974348;28;20058;-87
2022/01/05 00:05:51;;;;;;;14.27;3.53;;;0.70;99.90;;;;;;4973804;28;20078;-87
2022/01/05 00:08:25;;;;;;;11.93;2.90;;;1.90;99.90;;;;;;4974427;28;20372;-87
2022/01/05 00:10:54;;;;;;;15.32;3.10;;;0.70;99.90;;;;;;4990310;28;20057;-87
2022/01/05 00:13:25;;;;;;;10.73;2.70;;;2.00;99.90;;;;;;4973919;28;20089;-87
2022/01/05 00:15:54;;;;;;;15.03;3.63;;;1.50;99.90;;;;;;4973545;28;20098;-87
2022/01/05 00:18:26;;;;;;;13.80;3.10;;;1.30;99.90;;;;;;4990434;28;20049;-87
2022/01/05 00:20:59;;;;;;;12.27;3.20;;;1.50;99.90;;;;;;4973442;28;20057;-88
2022/01/05 00:23:28;;;;;;;10.52;3.15;;;1.00;99.90;;;;;;4990300;28;20061;-88
2022/01/05 00:26:03;;;;;;;12.23;2.97;;;0.80;99.90;;;;;;4973968;28;20046;-88
2022/01/05 00:28:28;;;;;;;13.03;2.93;;;0.80;99.90;;;;;;4973382;28;20050;-88
2022/01/05 00:30:57;;;;;;;10.97;2.53;;;1.00;99.90;;;;;;4975160;28;20039;-88
2022/01/05 00:33:23;;;;;;;16.90;2.60;;;0.90;99.90;;;;;;4973140;28;20042;-88
2022/01/05 00:35:48;;;;;;;16.77;3.50;;;1.10;99.90;;;;;;4972935;28;20057;-88
2022/01/05 00:40:47;;;;;;;9.40;2.10;;;1.10;99.90;;;;;;5017229;23;20060;-88
2022/01/05 00:51:53;;;;;;;10.53;2.20;;;1.30;99.90;;;;;;4992884;28;20038;-87
2022/01/05 00:56:53;;;;;;;11.93;2.10;;;1.40;99.90;;;;;;5017590;22;20050;-87
2022/01/05 00:59:44;;;;;;;11.53;2.60;;;2.00;99.90;;;;;;4996337;23;20085;-87
2022/01/05 01:02:10;;;;;;;12.50;2.10;;;1.40;99.90;;;;;;4972651;28;20046;-87
2022/01/05 01:04:42;;;;;;;10.53;2.23;;;1.50;99.90;;;;;;4973029;28;20050;-87
2022/01/05 01:07:14;;;;;;;19.00;3.20;;;1.20;99.90;;;;;;4972955;28;20122;-87
2022/01/05 01:09:45;;;;;;;12.20;2.67;;;1.10;99.90;;;;;;4989250;28;20061;-87
2022/01/05 01:12:34;;;;;;;11.07;2.30;;;0.80;99.90;;;;;;4978104;28;20042;-87
2022/01/05 01:15:09;;;;;;;9.83;2.17;;;1.30;99.90;;;;;;4985831;23;20618;-87
2022/01/05 01:17:38;;;;;;;12.70;2.10;;;1.20;99.90;;;;;;4994672;28;20478;-87
2022/01/05 01:20:05;;;;;;;7.43;2.07;;;0.90;99.90;;;;;;4973972;28;20050;-88
2022/01/05 01:22:34;;;;;;;10.27;2.03;;;1.30;99.90;;;;;;4991931;23;20212;-87
2022/01/05 01:25:07;;;;;;;9.13;1.73;;;1.20;99.90;;;;;;4985633;23;20856;-87
2022/01/05 01:27:34;;;;;;;12.38;2.10;;;1.20;99.90;;;;;;4999796;23;20050;-87
2022/01/05 01:30:01;;;;;;;10.40;1.93;;;2.80;99.90;;;;;;4975194;28;20050;-87
2022/01/05 01:32:33;;;;;;;11.47;2.07;;;1.90;99.90;;;;;;4989861;23;20050;-87
2022/01/05 01:41:31;;;;;;;8.23;1.95;;;1.10;99.90;;;;;;4966885;28;20047;-88
2022/01/05 01:44:00;;;;;;;9.43;1.90;;;0.80;99.90;;;;;;4990282;23;20132;-87
2022/01/05 01:46:32;;;;;;;11.27;2.20;;;0.80;99.90;;;;;;4975504;28;20540;-88
2022/01/05 01:49:04;;;;;;;10.50;1.87;;;1.90;99.90;;;;;;4976078;28;20528;-87
2022/01/05 01:51:33;;;;;;;14.00;1.90;;;2.70;99.90;;;;;;4974987;28;20501;-87
2022/01/05 01:54:07;;;;;;;13.97;2.50;;;0.80;99.90;;;;;;4982948;22;20046;-88
2022/01/05 01:56:34;;;;;;;9.43;2.10;;;1.00;99.90;;;;;;4975851;28;20077;-88
2022/01/05 01:59:07;;;;;;;13.53;2.43;;;3.00;99.90;;;;;;4974718;28;20042;-87
2022/01/05 02:01:36;;;;;;;11.45;2.35;;;0.90;99.90;;;;;;4975408;28;20058;-87
2022/01/05 02:04:05;;;;;;;9.93;2.03;;;1.00;99.90;;;;;;4975033;28;20081;-87
2022/01/05 02:06:37;;;;;;;11.20;2.43;;;3.30;99.90;;;;;;4974779;28;20086;-88
2022/01/05 02:09:08;;;;;;;10.10;2.33;;;0.90;99.90;;;;;;4975408;28;20042;-88
2022/01/05 02:11:39;;;;;;;10.93;2.10;;;1.00;99.90;;;;;;4974625;28;20398;-87
2022/01/05 02:14:07;;;;;;;17.60;3.07;;;0.90;99.90;;;;;;4992779;28;20042;-88
2022/01/05 02:16:42;;;;;;;11.50;2.10;;;2.10;99.90;;;;;;4975416;28;20077;-87
2022/01/05 02:19:08;;;;;;;13.20;2.37;;;0.80;99.90;;;;;;4979412;28;20117;-89
2022/01/05 02:21:42;;;;;;;8.97;2.00;;;1.20;99.90;;;;;;4983598;28;20422;-88
2022/01/05 02:24:11;;;;;;;;;;;2.10;99.90;;;;;;4976572;28;20505;-88
2022/01/05 02:26:42;;;;;;;10.13;2.53;;;1.50;99.90;;;;;;4975037;28;19918;-87
2022/01/05 02:29:10;;;;;;;10.57;2.80;;;1.60;99.90;;;;;;4992599;28;20125;-88
2022/01/05 02:31:42;;;;;;;13.30;2.37;;;1.70;99.90;;;;;;4975188;28;20046;-88
2022/01/05 02:34:17;;;;;;;13.03;2.50;;;0.70;99.90;;;;;;4975277;28;20129;-88
2022/01/05 02:36:48;;;;;;;12.90;2.27;;;1.30;99.90;;;;;;4981220;23;20806;-88
2022/01/05 02:40:20;;;;;;;14.50;2.27;;;1.10;99.90;;;;;;4984710;23;20054;-88
2022/01/05 02:42:51;;;;;;;10.43;1.90;;;0.40;99.90;;;;;;4985139;23;20062;-88
2022/01/05 02:48:59;;;;;;;9.57;2.07;;;2.30;99.90;;;;;;4998144;23;20059;-88
2022/01/05 02:51:27;;;;;;;11.70;2.37;;;1.00;99.90;;;;;;4975329;28;20128;-88
2022/01/05 02:56:26;;;;;;;11.70;2.20;;;1.20;99.90;;;;;;4972556;23;20086;-87
2022/01/05 02:58:58;;;;;;;14.30;2.63;;;2.30;99.90;;;;;;4981222;28;20058;-87
2022/01/05 03:01:31;;;;;;;10.13;2.00;;;1.30;99.90;;;;;;5003312;23;20089;-88
2022/01/05 03:03:56;;;;;;;14.00;2.33;;;0.50;99.90;;;;;;5030409;23;20216;-87
2022/01/05 03:07:14;;;;;;;13.20;2.60;;;0.90;99.90;;;;;;4988959;23;20137;-88
2022/01/05 03:10:10;;;;;;;15.87;2.23;;;2.60;99.90;;;;;;4989177;28;20049;-88
2022/01/05 03:12:38;;;;;;;9.57;2.00;;;1.40;99.90;;;;;;4976230;28;20613;-88
2022/01/05 03:15:04;;;;;;;13.83;2.17;;;1.20;99.90;;;;;;4977781;28;20046;-87
2022/01/05 03:17:36;;;;;;;10.87;2.03;;;1.40;99.90;;;;;;4995707;28;20490;-88
2022/01/05 03:20:03;;;;;;;15.87;2.53;;;1.00;99.90;;;;;;4995910;28;20042;-88
2022/01/05 03:22:31;;;;;;;10.70;2.00;;;1.40;99.90;;;;;;4995081;28;20046;-88
2022/01/05 03:25:04;;;;;;;12.30;2.50;;;2.00;99.90;;;;;;4977749;28;20137;-88
2022/01/05 03:27:33;;;;;;;13.67;2.00;;;1.20;99.90;;;;;;4978206;28;20050;-88
2022/01/05 03:32:40;;;;;;;13.10;2.73;;;1.30;99.90;;;;;;5007181;22;20053;-88
2022/01/05 03:35:08;;;;;;;10.83;2.67;;;1.00;99.90;;;;;;4995464;23;20133;-88
2022/01/05 03:37:34;;;;;;;11.70;2.13;;;1.10;99.90;;;;;;4995210;28;20050;-89
2022/01/05 03:41:06;;;;;;;16.53;2.53;;;1.00;99.90;;;;;;5071982;23;20039;-88
2022/01/05 03:43:40;;;;;;;12.43;2.47;;;2.00;99.90;;;;;;4983960;23;20112;-88
2022/01/05 03:46:09;;;;;;;11.33;2.20;;;0.90;99.90;;;;;;5152027;23;20981;-88
2022/01/05 03:49:38;;;;;;;12.07;2.20;;;1.20;99.90;;;;;;4994361;28;20043;-88
2022/01/05 03:52:07;;;;;;;14.43;2.27;;;1.70;99.90;;;;;;5028592;23;20051;-88
2022/01/05 03:54:36;;;;;;;11.60;2.17;;;2.30;99.90;;;;;;4981639;28;20455;-88
2022/01/05 03:59:39;;;;;;;14.23;2.37;;;1.20;99.90;;;;;;4983052;23;20050;-89
2022/01/05 04:05:41;;;;;;;10.90;2.00;;;0.80;99.90;;;;;;4981210;23;20137;-88
2022/01/05 04:11:48;;;;;;;13.07;2.33;;;2.50;99.90;;;;;;4973023;23;20556;-89
2022/01/05 04:14:17;;;;;;;11.63;2.33;;;0.80;99.90;;;;;;4977329;28;20046;-88
2022/01/05 04:16:46;;;;;;;11.20;2.13;;;1.10;99.90;;;;;;4983654;23;22174;-89
2022/01/05 04:20:18;;;;;;;14.60;2.43;;;0.80;99.90;;;;;;4981596;23;20544;-88
2022/01/05 04:22:47;;;;;;;15.77;2.20;;;2.10;99.90;;;;;;4975002;28;20062;-89
2022/01/05 04:25:22;;;;;;;14.77;2.70;;;0.80;99.90;;;;;;4983383;23;20482;-88
2022/01/05 04:27:51;;;;;;;13.80;2.60;;;0.60;99.90;;;;;;4975840;28;20061;-89
2022/01/05 04:30:20;;;;;;;10.63;2.07;;;0.80;99.90;;;;;;5008754;23;1200787;-89
2022/01/05 04:32:52;;;;;;;11.20;2.30;;;1.50;99.90;;;;;;4976389;28;20494;-89
2022/01/05 04:37:51;;;;;;;10.47;2.50;;;1.20;99.90;;;;;;5006074;22;20077;-88
2022/01/05 04:40:23;;;;;;;8.97;2.80;;;1.20;99.90;;;;;;4993918;28;20042;-88
2022/01/05 04:42:52;;;;;;;14.67;2.50;;;1.20;99.90;;;;;;4980516;23;20062;-88
2022/01/05 04:45:24;;;;;;;14.37;2.73;;;0.70;99.90;;;;;;4983939;23;20046;-88
2022/01/05 04:47:53;;;;;;;13.87;2.40;;;2.60;99.90;;;;;;4976602;28;20150;-89
2022/01/05 04:50:22;;;;;;;13.13;2.33;;;1.00;99.90;;;;;;4982297;23;20157;-88
2022/01/05 04:52:52;;;;;;;16.63;2.60;;;2.10;99.90;;;;;;4986001;23;20048;-88
2022/01/05 04:56:27;;;;;;;17.33;3.53;;;0.40;99.90;;;;;;5022831;23;20077;-90
2022/01/05 04:58:57;;;;;;;14.32;2.58;;;0.90;99.90;;;;;;4976134;28;20084;-88
2022/01/05 05:01:23;;;;;;;12.63;2.30;;;1.20;99.90;;;;;;4985466;23;20059;-88
2022/01/05 05:03:57;;;;;;;13.10;2.57;;;2.30;99.90;;;;;;4975530;28;20046;-88
2022/01/05 05:06:31;;;;;;;13.52;3.30;;;1.20;99.90;;;;;;5166698;23;20054;-88
2022/01/05 05:08:57;;;;;;;13.07;3.30;;;2.40;99.90;;;;;;4982534;23;20072;-89
2022/01/05 05:11:26;;;;;;;14.47;2.87;;;1.40;99.90;;;;;;5000361;23;20055;-89
2022/01/05 05:13:56;;;;;;;11.93;3.10;;;1.40;99.90;;;;;;4981183;23;20046;-88
2022/01/05 05:16:24;;;;;;;13.60;2.50;;;1.20;99.90;;;;;;4979477;23;20169;-89
2022/01/05 05:18:56;;;;;;;14.73;2.67;;;1.70;99.90;;;;;;4982772;23;20062;-89
2022/01/05 05:21:25;;;;;;;15.73;2.90;;;1.10;99.90;;;;;;4979855;23;20046;-89
2022/01/05 05:23:50;;;;;;;13.00;2.27;;;1.30;99.90;;;;;;4994757;28;20042;-88
2022/01/05 05:26:21;;;;;;;14.17;2.80;;;2.40;99.90;;;;;;4974702;28;20100;-88
2022/01/05 05:28:50;;;;;;;12.93;2.83;;;2.00;99.90;;;;;;4972108;28;20096;-88
2022/01/05 05:31:21;;;;;;;13.53;3.00;;;2.00;99.90;;;;;;4972653;28;20050;-89
2022/01/05 05:33:53;;;;;;;15.30;2.60;;;1.40;99.90;;;;;;4972549;28;20034;-88
2022/01/05 05:36:21;;;;;;;15.07;2.53;;;1.40;99.90;;;;;;4972886;28;20127;-88
2022/01/05 05:38:53;;;;;;;19.17;2.77;;;1.40;99.90;;;;;;4972335;28;20057;-89
2022/01/05 05:41:21;;;;;;;11.63;2.97;;;1.50;99.90;;;;;;4972502;28;20046;-89
2022/01/05 05:43:56;;;;;;;12.73;2.50;;;1.60;99.90;;;;;;4972187;28;20394;-89
2022/01/05 05:46:22;;;;;;;18.47;3.60;;;1.90;99.90;;;;;;4972400;28;20043;-89
2022/01/05 05:48:50;;;;;;;13.90;2.90;;;1.80;99.90;;;;;;4972512;28;20113;-89
2022/01/05 05:51:19;;;;;;;13.43;2.80;;;1.60;99.90;;;;;;4972300;28;20080;-89
2022/01/05 05:53:51;;;;;;;17.90;3.23;;;1.70;99.90;;;;;;4972421;28;20426;-89
2022/01/05 05:56:22;;;;;;;19.30;3.57;;;2.00;99.90;;;;;;4972399;28;20042;-89
2022/01/05 05:58:51;;;;;;;14.37;2.80;;;1.80;99.90;;;;;;4971835;28;20142;-89
2022/01/05 06:01:23;;;;;;;19.27;3.30;;;1.90;99.90;;;;;;4972722;28;20411;-89
2022/01/05 06:03:51;;;;;;;14.80;2.57;;;2.00;99.90;;;;;;4971775;28;20057;-89
2022/01/05 06:06:23;;;;;;;13.27;2.73;;;2.80;99.90;;;;;;4972918;28;20051;-89
2022/01/05 06:08:51;;;;;;;16.33;3.20;;;2.50;99.90;;;;;;4972297;28;20046;-89
2022/01/05 06:11:24;;;;;;;14.00;3.00;;;1.80;99.90;;;;;;4972104;28;20081;-89
2022/01/05 06:13:52;;;;;;;18.30;4.17;;;2.80;99.90;;;;;;4971804;28;20046;-89
2022/01/05 06:16:26;;;;;;;18.47;2.80;;;1.90;99.90;;;;;;4972518;28;20174;-89
2022/01/05 06:18:58;;;;;;;19.77;3.13;;;2.10;99.90;;;;;;4971984;28;20129;-89
2022/01/05 06:21:45;;;;;;;16.37;3.30;;;2.00;99.90;;;;;;4972259;28;20054;-89
2022/01/05 06:24:18;;;;;;;20.30;4.07;;;1.80;99.90;;;;;;4982817;23;20065;-89
2022/01/05 06:26:45;;;;;;;13.70;2.80;;;1.80;99.90;;;;;;5034728;23;20069;-89
2022/01/05 06:29:16;;;;;;;14.80;3.07;;;2.80;99.90;;;;;;4951341;28;20062;-89
2022/01/05 06:31:42;;;;;;;17.23;3.37;;;3.10;99.90;;;;;;4975620;23;20046;-88
2022/01/05 06:34:11;;;;;;;17.57;3.83;;;2.00;99.90;;;;;;4974882;28;20046;-90
2022/01/05 06:36:40;;;;;;;15.30;3.07;;;2.20;99.90;;;;;;4975145;28;20065;-89
2022/01/05 06:39:12;;;;;;;11.63;2.70;;;3.50;99.90;;;;;;4974865;28;20050;-88
2022/01/05 06:41:37;;;;;;;14.03;2.90;;;2.10;99.90;;;;;;4992363;28;20050;-89
2022/01/05 06:44:08;;;;;;;22.97;3.77;;;2.00;99.90;;;;;;4992422;28;20054;-89
2022/01/05 06:46:39;;;;;;;15.57;3.07;;;4.20;99.90;;;;;;4983345;28;20039;-89
2022/01/05 06:49:08;;;;;;;18.20;3.73;;;1.30;99.90;;;;;;4992668;28;20042;-88
2022/01/05 06:51:34;;;;;;;13.53;3.30;;;2.60;99.90;;;;;;4980698;28;20042;-88
2022/01/05 06:54:00;;;;;;;23.27;4.13;;;3.80;99.90;;;;;;4985127;28;20088;-88
2022/01/05 06:56:31;;;;;;;17.03;3.10;;;2.00;99.90;;;;;;4994304;28;20127;-88
2022/01/05 06:59:00;;;;;;;16.13;3.50;;;2.50;99.90;;;;;;4978926;28;20046;-88
2022/01/05 07:01:31;;;;;;;19.07;3.87;;;2.00;99.90;;;;;;4978147;28;20050;-86
2022/01/05 07:03:59;;;;;;;13.83;2.90;;;2.30;99.90;;;;;;4978701;28;20076;-87
2022/01/05 07:06:25;;;;;;;14.07;3.10;;;2.50;99.90;;;;;;4978975;28;20050;-87
2022/01/05 07:08:57;;;;;;;17.10;3.50;;;2.50;99.90;;;;;;4995200;28;20044;-87
2022/01/05 07:11:25;;;;;;;18.17;3.57;;;3.70;99.90;;;;;;4996165;28;20121;-85
2022/01/05 07:13:50;;;;;;;17.07;3.90;;;2.20;99.90;;;;;;4978776;28;20089;-92
2022/01/05 07:16:17;;;;;;;18.57;4.00;;;3.10;99.90;;;;;;4995444;28;20057;-91
2022/01/05 07:18:42;;;;;;;16.73;4.57;;;2.50;99.90;;;;;;4996004;28;20089;-88
2022/01/05 07:21:08;;;;;;;16.00;3.40;;;2.50;99.90;;;;;;4978141;28;20047;-88
2022/01/05 07:23:33;;;;;;;15.57;4.03;;;2.50;99.90;;;;;;4978816;28;20076;-89
2022/01/05 07:25:59;;;;;;;18.10;4.07;;;2.50;99.90;;;;;;4978449;28;20109;-87
2022/01/05 07:28:30;;;;;;;16.27;3.50;;;2.40;99.90;;;;;;4976447;28;20046;-85
2022/01/05 07:31:04;;;;;;;15.03;3.17;;;2.70;99.90;;;;;;4989274;28;20065;-85
2022/01/05 07:33:30;;;;;;;15.93;3.80;;;2.40;99.90;;;;;;4982530;28;20129;-84
2022/01/05 07:35:56;;;;;;;13.63;3.03;;;3.40;99.90;;;;;;4968316;28;20165;-84
2022/01/05 07:38:21;;;;;;;13.83;3.93;;;2.40;99.90;;;;;;4972993;28;20155;-85
2022/01/05 07:40:47;;;;;;;11.50;4.17;;;2.40;99.90;;;;;;4977872;28;20038;-84
2022/01/05 07:43:13;;;;;;;17.00;5.90;;;2.90;99.90;;;;;;4995105;28;20093;-84
2022/01/05 07:45:38;;;;;;;11.30;3.13;;;3.10;99.90;;;;;;4995387;28;20045;-85
2022/01/05 07:48:05;;;;;;;12.40;2.93;;;2.30;99.90;;;;;;4995290;28;20035;-85
2022/01/05 07:50:30;;;;;;;14.13;3.87;;;2.30;99.90;;;;;;4977705;28;20505;-85
2022/01/05 07:52:57;;;;;;;9.63;2.70;;;3.00;99.90;;;;;;4978181;28;20046;-84
2022/01/05 07:55:23;;;;;;;12.00;2.90;;;2.70;99.90;;;;;;4995478;28;20097;-85
2022/01/05 07:57:51;;;;;;;13.10;3.30;;;2.60;99.90;;;;;;4994196;28;20437;-84
2022/01/05 08:00:17;;;;;;;12.00;2.90;;;1.80;99.90;;;;;;4995175;28;20101;-84
2022/01/05 08:02:43;;;;;;;12.73;3.00;;;1.80;99.90;;;;;;4995103;28;20422;-83
2022/01/05 08:05:09;;;;;;;13.53;3.57;;;1.70;99.90;;;;;;4976951;28;20126;-83
2022/01/05 08:07:35;;;;;;;10.73;3.40;;;1.70;99.90;;;;;;4995166;28;20129;-83
2022/01/05 08:10:01;;;;;;;11.37;3.20;;;2.00;99.90;;;;;;4994846;28;20454;-84
2022/01/05 08:12:26;;;;;;;11.87;3.40;;;1.50;99.90;;;;;;4976888;28;20133;-86
2022/01/05 08:14:52;;;;;;;11.33;3.33;;;1.30;99.90;;;;;;4994552;28;20046;-86
2022/01/05 08:17:18;;;;;;;12.47;3.33;;;1.30;99.90;;;;;;4977335;28;20084;-85
2022/01/05 08:19:44;;;;;;;9.90;3.27;;;1.60;99.90;;;;;;4976886;28;20129;-85
2022/01/05 08:22:09;;;;;;;14.27;4.27;;;2.30;99.90;;;;;;4978028;28;20129;-83
2022/01/05 08:24:35;;;;;;;13.23;4.17;;;1.20;99.90;;;;;;4994912;28;20486;-90
2022/01/05 08:27:01;;;;;;;15.60;4.87;;;1.30;99.90;;;;;;4995846;28;20106;-86
2022/01/05 08:29:27;;;;;;;15.87;5.07;;;1.30;99.90;;;;;;4977623;28;20461;-86
2022/01/05 08:31:53;;;;;;;20.97;8.10;;;1.40;99.90;;;;;;4976478;28;20059;-86
2022/01/05 08:34:18;;;;;;;17.37;5.77;;;1.50;99.90;;;;;;4994424;28;20046;-86
2022/01/05 08:36:44;;;;;;;15.00;5.57;;;1.60;99.90;;;;;;4976969;28;20410;-87
2022/01/05 08:39:09;;;;;;;43.37;16.63;;;1.70;99.90;;;;;;4976625;28;20046;-86
2022/01/05 08:41:35;;;;;;;17.70;5.13;;;1.80;99.90;;;;;;4994855;28;20545;-87
2022/01/05 08:44:01;;;;;;;18.53;5.47;;;1.70;99.90;;;;;;4977801;28;20042;-87
2022/01/05 08:46:27;;;;;;;21.97;6.50;;;2.10;99.90;;;;;;4976640;28;20439;-87
2022/01/05 08:48:52;;;;;;;17.47;5.33;;;2.20;99.90;;;;;;4976524;28;20460;-86
2022/01/05 08:51:18;;;;;;;21.63;11.53;;;2.40;99.90;;;;;;4977106;28;20050;-85
2022/01/05 08:53:44;;;;;;;23.10;6.97;;;2.40;99.90;;;;;;4975779;28;20092;-86
2022/01/05 08:56:09;;;;;;;22.87;9.23;;;2.50;99.90;;;;;;4976860;28;20050;-85
2022/01/05 08:58:35;;;;;;;11.30;2.80;;;2.80;99.90;;;;;;4977024;28;20042;-84
2022/01/05 09:01:01;;;;;;;10.67;2.40;;;3.10;99.90;;;;;;4993144;28;20050;-85
2022/01/05 09:03:26;;;;;;;12.70;2.83;;;4.50;99.90;;;;;;4994225;28;20046;-85
2022/01/05 09:05:52;;;;;;;13.50;3.00;;;3.40;99.90;;;;;;4994082;28;20042;-86
2022/01/05 09:08:18;;;;;;;9.37;2.43;;;3.50;99.90;;;;;;4975843;28;20081;-86
2022/01/05 09:10:45;;;;;;;9.43;2.10;;;3.60;99.90;;;;;;4975460;28;20134;-86
2022/01/05 09:13:12;;;;;;;12.80;2.80;;;3.60;99.90;;;;;;4976721;28;20489;-86
2022/01/05 09:15:41;;;;;;;12.60;3.30;;;3.70;99.90;;;;;;4975875;28;20475;-87
2022/01/05 09:18:16;;;;;;;14.50;3.17;;;3.70;99.90;;;;;;4977040;28;20065;-87
2022/01/05 09:20:42;;;;;;;11.00;2.77;;;5.00;99.90;;;;;;4975440;28;20046;-84
2022/01/05 09:23:08;;;;;;;15.07;6.00;;;3.80;99.90;;;;;;4976055;28;20105;-84
2022/01/05 09:25:33;;;;;;;14.33;2.70;;;3.90;99.90;;;;;;4976736;28;20394;-84
2022/01/05 09:28:01;;;;;;;20.13;5.13;;;4.00;99.90;;;;;;4992834;28;20449;-84
2022/01/05 09:30:27;;;;;;;14.87;3.33;;;4.10;99.90;;;;;;4993319;28;20058;-84
2022/01/05 09:32:53;;;;;;;17.20;4.20;;;4.20;99.90;;;;;;4975767;28;20494;-84
2022/01/05 09:35:21;;;;;;;14.63;4.60;;;4.20;99.90;;;;;;4975822;28;20141;-84
2022/01/05 09:38:10;;;;;;;16.90;4.60;;;4.90;99.90;;;;;;4975906;28;20390;-85
2022/01/05 09:43:21;;;;;;;12.77;2.50;;;4.70;99.90;;;;;;4975793;28;20394;-85
2022/01/05 09:46:09;;;;;;;14.47;3.20;;;4.70;99.90;;;;;;4976104;28;20055;-84
2022/01/05 09:48:54;;;;;;;16.20;5.20;;;4.70;99.90;;;;;;4975992;28;20113;-85
2022/01/05 09:51:24;;;;;;;13.87;4.03;;;4.70;99.90;;;;;;4976313;28;20054;-84
2022/01/05 09:53:53;;;;;;;12.60;3.47;;;4.70;99.90;;;;;;4976806;28;20106;-85
2022/01/05 09:56:19;;;;;;;16.57;2.83;;;4.70;99.90;;;;;;4978507;28;20051;-84
2022/01/05 09:58:45;;;;;;;13.67;2.83;;;4.80;99.90;;;;;;4982030;28;20050;-85
2022/01/05 10:01:10;;;;;;;17.83;4.67;;;4.80;99.90;;;;;;4976321;28;20048;-85
2022/01/05 10:03:36;;;;;;;13.40;3.03;;;4.90;99.90;;;;;;4993125;28;20082;-83
2022/01/05 10:06:02;;;;;;;14.07;2.80;;;4.90;99.90;;;;;;4975924;28;20042;-83
2022/01/05 10:08:28;;;;;;;15.40;3.33;;;6.10;99.90;;;;;;4993563;28;20556;-83
2022/01/05 10:10:54;;;;;;;15.80;3.23;;;4.90;99.90;;;;;;4975430;28;20181;-83
2022/01/05 10:13:20;;;;;;;10.37;2.10;;;4.90;99.90;;;;;;4976271;28;20140;-83
2022/01/05 10:15:45;;;;;;;10.63;2.33;;;5.20;99.90;;;;;;4982487;28;20070;-83
2022/01/05 10:18:18;;;;;;;15.23;2.60;;;5.00;99.90;;;;;;4994190;28;20049;-84
2022/01/05 10:21:02;;;;;;;18.20;2.83;;;5.10;99.90;;;;;;4982548;28;20050;-84
2022/01/05 10:23:49;;;;;;;15.65;2.90;;;5.10;99.90;;;;;;4989298;28;20049;-84
2022/01/05 10:26:30;;;;;;;14.97;2.70;;;5.10;99.90;;;;;;4980994;28;20046;-83
2022/01/05 10:28:58;;;;;;;16.60;2.77;;;5.00;99.90;;;;;;4999314;28;20050;-85
2022/01/05 10:31:27;;;;;;;16.03;2.77;;;5.10;99.90;;;;;;4979637;28;20053;-83
2022/01/05 10:33:53;;;;;;;19.30;3.27;;;5.10;99.90;;;;;;4998115;28;20078;-85
2022/01/05 10:36:27;;;;;;;16.50;2.53;;;5.20;99.90;;;;;;5002840;28;20038;-85
2022/01/05 10:38:58;;;;;;;20.23;3.00;;;6.30;99.90;;;;;;4988823;28;20050;-87
2022/01/05 10:41:27;;;;;;;14.60;2.77;;;5.30;99.90;;;;;;5012984;28;20054;-86
2022/01/05 10:44:11;;;;;;;20.90;3.37;;;5.30;99.90;;;;;;4997583;28;20074;-85
2022/01/05 10:46:50;;;;;;;13.60;2.90;;;5.40;99.90;;;;;;4991033;28;20065;-85
2022/01/05 10:49:24;;;;;;;22.90;3.30;;;5.40;99.90;;;;;;4991017;28;20512;-84
2022/01/05 10:51:58;;;;;;;18.10;3.23;;;5.50;99.90;;;;;;4984701;28;20137;-84
2022/01/05 10:54:26;;;;;;;21.00;2.78;;;4.80;99.90;;;;;;4980352;28;20049;-83
2022/01/05 10:57:10;;;;;;;29.80;3.77;;;5.50;99.90;;;;;;4978703;28;20058;-84
2022/01/05 10:59:39;;;;;;;20.65;3.50;;;5.60;99.90;;;;;;4995949;28;20125;-82
2022/01/05 11:02:23;;;;;;;14.73;2.93;;;5.60;99.90;;;;;;4995671;28;20088;-83
2022/01/05 11:04:58;;;;;;;20.10;3.00;;;5.70;99.90;;;;;;4978770;28;20074;-85
2022/01/05 11:07:26;;;;;;;19.77;3.10;;;5.80;99.90;;;;;;4978259;28;20046;-85
2022/01/05 11:09:55;;;;;;;15.30;2.93;;;5.80;99.90;;;;;;4978496;28;20132;-83
2022/01/05 11:12:29;;;;;;;19.03;3.37;;;5.80;99.90;;;;;;4996030;28;20042;-83
2022/01/05 11:14:55;;;;;;;20.97;3.50;;;5.90;99.90;;;;;;4977352;28;20046;-87
2022/01/05 11:17:20;;;;;;;18.77;3.37;;;6.00;99.90;;;;;;4978891;28;20045;-84
2022/01/05 11:19:46;;;;;;;21.23;3.53;;;6.10;99.90;;;;;;4995201;28;20105;-84
2022/01/05 11:22:16;;;;;;;16.13;3.03;;;7.40;99.90;;;;;;4995028;28;20121;-87
2022/01/05 11:24:54;;;;;;;20.97;3.10;;;6.20;99.90;;;;;;4978612;28;20039;-86
2022/01/05 11:27:24;;;;;;;18.07;3.67;;;6.30;99.90;;;;;;4984777;28;20058;-87
2022/01/05 11:29:50;;;;;;;16.70;3.03;;;6.40;99.90;;;;;;4993839;28;20085;-88
2022/01/05 11:32:20;;;;;;;13.20;2.73;;;6.40;99.90;;;;;;4978009;28;20046;-88
2022/01/05 11:34:56;;;;;;;18.47;3.10;;;6.50;99.90;;;;;;4969986;28;20046;-87
2022/01/05 11:37:21;;;;;;;17.67;2.73;;;6.50;99.90;;;;;;4968804;28;20045;-87
2022/01/05 11:39:56;;;;;;;17.23;3.50;;;5.70;99.90;;;;;;4985342;28;20039;-88
2022/01/05 11:42:35;;;;;;;15.43;3.47;;;6.90;99.90;;;;;;4967363;28;20435;-90
2022/01/05 11:45:01;;;;;;;17.53;3.47;;;7.50;99.90;;;;;;4966904;28;20081;-85
2022/01/05 11:47:32;;;;;;;17.93;2.83;;;6.50;99.90;;;;;;4965068;28;20181;-88
2022/01/05 11:50:14;;;;;;;15.03;2.97;;;6.70;99.90;;;;;;5086107;23;20057;-88
2022/01/05 11:53:07;;;;;;;17.23;3.07;;;7.00;99.90;;;;;;4992333;23;20085;-89
2022/01/05 11:59:41;;;;;;;15.40;3.30;;;7.00;99.90;;;;;;4862974;29;20057;-89
2022/01/05 12:02:13;;;;;;;16.57;2.90;;;6.90;99.90;;;;;;4869215;29;20067;-88
2022/01/05 12:05:02;;;;;;;15.60;2.83;;;6.60;99.90;;;;;;4977004;28;20059;-86
2022/01/05 12:07:48;;;;;;;15.90;2.80;;;6.80;99.90;;;;;;4984845;23;20054;-88
2022/01/05 12:13:06;;;;;;;13.00;3.47;;;6.50;99.90;;;;;;4995044;28;20058;-88
2022/01/05 12:15:48;;;;;;;14.90;2.83;;;6.70;99.90;;;;;;4977515;28;20039;-88
2022/01/05 12:18:38;;;;;;;14.07;2.80;;;7.50;99.90;;;;;;4977362;28;20101;-87
2022/01/05 12:21:42;;;;;;;14.67;2.93;;;6.90;99.90;;;;;;4977425;28;20081;-88
2022/01/05 12:24:08;;;;;;;22.25;5.05;;;6.90;99.90;;;;;;4976745;28;20129;-87
2022/01/05 12:26:39;;;;;;;10.90;2.37;;;7.60;99.90;;;;;;4992200;28;20154;-85
2022/01/05 12:29:08;;;;;;;13.43;2.47;;;7.40;99.90;;;;;;4966294;28;20107;-86
2022/01/05 12:31:53;;;;;;;11.17;2.03;;;7.00;99.90;;;;;;4985251;28;20045;-86
2022/01/05 12:34:57;;;;;;;11.07;2.63;;;6.40;99.90;;;;;;4968246;28;20090;-85
2022/01/05 12:37:53;;;;;;;10.57;2.37;;;6.50;99.90;;;;;;4975122;28;20050;-87
2022/01/05 12:40:42;;;;;;;13.60;2.43;;;6.50;99.90;;;;;;4965582;28;20051;-87
2022/01/05 12:43:13;;;;;;;14.90;2.40;;;7.00;99.90;;;;;;4957790;28;20047;-87
2022/01/05 12:45:45;;;;;;;13.77;1.70;;;7.10;99.90;;;;;;4955852;28;20090;-86
2022/01/05 12:51:23;;;;;;;12.97;2.00;;;6.70;99.90;;;;;;4957539;28;20050;-87
2022/01/05 12:54:02;;;;;;;14.03;5.67;;;6.70;99.90;;;;;;4956669;28;20054;-87
2022/01/05 12:56:50;;;;;;;13.50;2.83;;;6.60;99.90;;;;;;4957946;28;20057;-87
2022/01/05 12:59:24;;;;;;;12.67;3.13;;;6.50;99.90;;;;;;4971603;28;20074;-86
2022/01/05 13:01:55;;;;;;;10.30;2.60;;;6.70;99.90;;;;;;4966640;28;20047;-86
2022/01/05 13:04:24;;;;;;;14.33;2.77;;;6.70;99.90;;;;;;4957413;28;20038;-87
2022/01/05 13:06:54;;;;;;;14.00;2.57;;;7.70;99.90;;;;;;4957241;28;20058;-87
2022/01/05 13:09:31;;;;;;;13.37;3.30;;;6.70;99.90;;;;;;4957831;28;20051;-87
2022/01/05 13:12:20;;;;;;;17.23;2.80;;;6.70;99.90;;;;;;4957326;28;20051;-86
2022/01/05 13:15:01;;;;;;;22.30;8.87;;;6.70;99.90;;;;;;4974218;28;20430;-87
2022/01/05 13:17:31;;;;;;;17.63;6.90;;;6.70;99.90;;;;;;4971894;28;20165;-86
2022/01/05 13:20:00;;;;;;;18.93;3.77;;;7.80;99.90;;;;;;4968039;28;20038;-87
2022/01/05 13:22:52;;;;;;;15.00;3.57;;;6.70;99.90;;;;;;4972079;23;20055;-87
2022/01/05 13:25:30;;;;;;;13.67;3.53;;;6.80;99.90;;;;;;4963503;28;20042;-86
2022/01/05 13:28:01;;;;;;;17.00;3.07;;;6.80;99.90;;;;;;4965787;23;20050;-85
2022/01/05 13:30:34;;;;;;;16.50;2.90;;;6.20;99.90;;;;;;4975992;28;20529;-85
2022/01/05 13:33:08;;;;;;;12.63;3.10;;;6.80;99.90;;;;;;4992766;28;20125;-85
2022/01/05 13:35:40;;;;;;;11.60;2.80;;;6.90;99.90;;;;;;4975663;28;20047;-84
2022/01/05 13:38:12;;;;;;;9.60;2.40;;;6.80;99.90;;;;;;4976132;28;20050;-84
2022/01/05 13:40:40;;;;;;;13.87;2.83;;;6.60;99.90;;;;;;4976059;28;20046;-85
2022/01/05 13:43:07;;;;;;;15.50;6.20;;;6.60;99.90;;;;;;4975015;28;20065;-84
2022/01/05 13:45:45;;;;;;;20.33;3.20;;;6.40;99.90;;;;;;4975813;28;20084;-86
2022/01/05 13:48:35;;;;;;;13.63;2.70;;;6.60;99.90;;;;;;4969776;28;20046;-84
2022/01/05 13:51:08;;;;;;;15.93;3.67;;;6.30;99.90;;;;;;4993128;28;20058;-89
2022/01/05 13:53:35;;;;;;;16.92;3.80;;;7.60;99.90;;;;;;4976186;28;20050;-84
2022/01/05 13:56:10;;;;;;;13.17;3.70;;;7.10;99.90;;;;;;4974534;28;20046;-86
2022/01/05 13:58:38;;;;;;;16.37;3.27;;;6.70;99.90;;;;;;4976031;28;20085;-84
2022/01/05 14:01:06;;;;;;;13.87;2.40;;;6.30;99.90;;;;;;4989290;28;20062;-85
2022/01/05 14:03:47;;;;;;;18.03;3.17;;;7.10;99.90;;;;;;4967466;28;20498;-85
2022/01/05 14:06:25;;;;;;;18.20;4.37;;;6.20;99.90;;;;;;4975936;28;20129;-85